createdAt,value
2019-05-18T00:01:23.977Z,13.40
2019-05-18T00:06:47.483Z,13.20
2019-05-18T00:12:11.148Z,13.50
2019-05-18T00:17:34.355Z,13.60
2019-05-18T00:22:57.996Z,13.60
2019-05-18T00:28:21.458Z,13.70
2019-05-18T00:33:45.141Z,13.50
2019-05-18T00:39:08.364Z,13.60
2019-05-18T00:44:32.332Z,13.40
2019-05-18T00:49:55.837Z,12.60
2019-05-18T00:55:19.723Z,12.30
2019-05-18T01:00:43.438Z,12.30
2019-05-18T01:06:06.926Z,13.00
2019-05-18T01:11:30.179Z,13.20
2019-05-18T01:16:53.388Z,13.30
2019-05-18T01:22:17.208Z,13.20
2019-05-18T01:27:41.785Z,13.20
2019-05-18T01:33:05.018Z,13.30
2019-05-18T01:38:28.608Z,13.10
2019-05-18T01:43:51.904Z,13.10
2019-05-18T01:49:15.970Z,13.20
2019-05-18T01:54:39.809Z,13.30
2019-05-18T02:00:03.356Z,13.20
2019-05-18T02:05:27.400Z,12.80
2019-05-18T02:10:50.794Z,12.80
2019-05-18T02:16:14.790Z,13.00
2019-05-18T02:21:38.615Z,13.20
2019-05-18T02:27:02.483Z,13.40
2019-05-18T02:32:26.211Z,13.40
2019-05-18T02:37:49.308Z,13.50
2019-05-18T02:43:13.027Z,13.60
2019-05-18T02:48:48.569Z,13.50
2019-05-18T02:54:01.143Z,13.40
2019-05-18T02:59:24.894Z,13.30
2019-05-18T03:04:48.584Z,13.30
2019-05-18T03:10:12.349Z,12.90
2019-05-18T03:15:35.969Z,12.90
2019-05-18T03:21:00.094Z,13.20
2019-05-18T03:26:23.824Z,13.30
2019-05-18T03:31:47.496Z,12.70
2019-05-18T03:37:11.429Z,12.90
2019-05-18T03:42:34.877Z,10.10
2019-05-18T03:47:58.615Z,12.80
2019-05-18T03:53:22.276Z,12.90
2019-05-18T03:58:45.632Z,12.60
2019-05-18T04:04:08.882Z,12.50
2019-05-18T04:09:32.136Z,12.80
2019-05-18T04:14:55.898Z,12.90
2019-05-18T04:20:20.132Z,13.30
2019-05-18T04:25:44.065Z,13.30
2019-05-18T04:31:07.624Z,13.30
2019-05-18T04:36:31.663Z,13.60
2019-05-18T04:41:55.799Z,13.70
2019-05-18T04:47:19.172Z,13.80
2019-05-18T04:52:42.940Z,14.00
2019-05-18T04:58:06.775Z,14.10
2019-05-18T05:03:30.648Z,14.20
2019-05-18T05:08:53.841Z,14.40
2019-05-18T05:14:17.087Z,14.40
2019-05-18T05:19:41.148Z,14.30
2019-05-18T05:25:04.805Z,14.40
2019-05-18T05:30:28.122Z,14.40
2019-05-18T05:35:52.006Z,14.60
2019-05-18T05:41:16.711Z,14.60
2019-05-18T05:46:40.904Z,14.60
2019-05-18T05:52:04.591Z,14.70
2019-05-18T05:57:28.610Z,14.70
2019-05-18T06:02:52.252Z,14.80
2019-05-18T06:08:15.917Z,14.80
2019-05-18T06:13:39.920Z,14.70
2019-05-18T06:19:05.657Z,14.80
2019-05-18T06:24:29.442Z,15.00
2019-05-18T06:29:53.403Z,15.10
2019-05-18T06:35:17.280Z,15.10
2019-05-18T06:40:41.242Z,15.20
2019-05-18T06:46:06.174Z,15.30
2019-05-18T06:51:29.660Z,15.40
2019-05-18T06:56:56.391Z,15.60
2019-05-18T07:02:21.231Z,15.80
2019-05-18T07:07:47.355Z,15.90
2019-05-18T07:13:10.464Z,16.00
2019-05-18T07:18:34.408Z,16.10
2019-05-18T07:23:58.215Z,16.20
2019-05-18T07:29:21.885Z,16.30
2019-05-18T07:34:45.399Z,16.50
2019-05-18T07:40:10.259Z,16.80
2019-05-18T07:45:34.194Z,17.20
2019-05-18T07:50:58.227Z,17.60
2019-05-18T07:56:21.831Z,18.30
2019-05-18T08:01:48.035Z,18.90
2019-05-18T08:07:11.633Z,19.70
2019-05-18T08:12:35.895Z,20.20
2019-05-18T08:17:59.359Z,20.30
2019-05-18T08:23:22.682Z,20.60
2019-05-18T08:28:45.878Z,20.30
2019-05-18T08:34:10.428Z,20.50
2019-05-18T08:39:33.910Z,20.40
2019-05-18T08:44:56.998Z,22.20
2019-05-18T08:50:20.417Z,22.80
2019-05-18T08:55:43.816Z,23.50
2019-05-18T09:01:07.462Z,23.90
2019-05-18T09:06:31.048Z,24.20
2019-05-18T09:11:54.543Z,24.60
2019-05-18T09:17:18.260Z,24.20
2019-05-18T09:22:41.216Z,24.70
2019-05-18T09:28:04.572Z,23.60
2019-05-18T09:33:28.248Z,24.70
2019-05-18T09:38:51.402Z,25.00
2019-05-18T09:44:15.598Z,25.10
2019-05-18T09:49:39.015Z,24.80
2019-05-18T09:55:02.224Z,25.70
2019-05-18T10:00:25.280Z,28.10
2019-05-18T10:05:49.246Z,27.70
2019-05-18T10:11:13.119Z,28.90
2019-05-18T10:16:36.981Z,28.60
2019-05-18T10:22:00.627Z,30.50
2019-05-18T10:27:24.187Z,29.90
2019-05-18T10:32:48.139Z,31.10
2019-05-18T10:38:11.423Z,32.10
2019-05-18T10:43:35.844Z,30.10
2019-05-18T10:48:58.918Z,31.00
2019-05-18T10:54:22.924Z,31.00
2019-05-18T10:59:46.825Z,30.40
2019-05-18T11:05:11.194Z,31.60
2019-05-18T11:10:35.167Z,31.30
2019-05-18T11:15:58.852Z,30.60
2019-05-18T11:21:22.063Z,30.50
2019-05-18T11:26:45.175Z,29.80
2019-05-18T11:32:08.707Z,29.60
2019-05-18T11:37:32.440Z,31.10
2019-05-18T11:42:55.818Z,30.40
2019-05-18T11:48:19.629Z,28.00
2019-05-18T11:53:56.223Z,27.00
2019-05-18T11:59:08.827Z,26.00
2019-05-18T12:04:32.288Z,26.10
2019-05-18T12:09:55.820Z,29.20
2019-05-18T12:15:20.397Z,32.10
2019-05-18T12:20:44.642Z,30.60
2019-05-18T12:26:07.827Z,30.50
2019-05-18T12:31:31.700Z,30.10
2019-05-18T12:36:55.755Z,28.80
2019-05-18T12:42:19.872Z,28.90
2019-05-18T12:47:43.481Z,30.10
2019-05-18T12:53:07.267Z,29.60
2019-05-18T12:58:30.743Z,29.30
2019-05-18T13:03:54.223Z,29.50
2019-05-18T13:09:19.742Z,30.00
2019-05-18T13:14:44.899Z,29.10
2019-05-18T13:20:09.628Z,29.80
2019-05-18T13:25:32.819Z,31.30
2019-05-18T13:30:56.675Z,31.00
2019-05-18T13:36:20.146Z,30.10
2019-05-18T13:41:44.250Z,30.10
2019-05-18T13:47:07.564Z,30.20
2019-05-18T13:52:30.808Z,31.60
2019-05-18T13:57:54.001Z,31.80
2019-05-18T14:03:17.644Z,33.30
2019-05-18T14:08:41.591Z,32.90
2019-05-18T14:14:05.610Z,32.60
2019-05-18T14:19:29.819Z,33.20
2019-05-18T14:24:53.364Z,33.00
2019-05-18T14:30:17.474Z,33.70
2019-05-18T14:35:41.147Z,32.90
2019-05-18T14:41:05.414Z,32.90
2019-05-18T14:46:28.919Z,33.10
2019-05-18T14:51:52.747Z,32.60
2019-05-18T14:57:16.044Z,32.40
2019-05-18T15:02:39.032Z,31.00
2019-05-18T15:08:02.881Z,30.40
2019-05-18T15:13:26.567Z,30.40
2019-05-18T15:18:50.379Z,32.10
2019-05-18T15:24:14.095Z,31.00
2019-05-18T15:29:37.928Z,29.90
2019-05-18T15:35:02.007Z,31.80
2019-05-18T15:40:25.272Z,25.90
2019-05-18T15:45:48.730Z,24.30
2019-05-18T15:51:11.819Z,22.80
2019-05-18T15:56:35.790Z,22.80
2019-05-18T16:01:58.999Z,21.50
2019-05-18T16:07:22.902Z,19.90
2019-05-18T16:12:48.278Z,20.30
2019-05-18T16:18:12.022Z,21.50
2019-05-18T16:23:34.987Z,21.80
2019-05-18T16:28:58.063Z,21.80
2019-05-18T16:34:21.694Z,22.00
2019-05-18T16:39:45.547Z,21.50
2019-05-18T16:45:10.087Z,21.80
2019-05-18T16:50:33.441Z,21.50
2019-05-18T16:55:57.547Z,21.30
2019-05-18T17:01:21.847Z,21.60
2019-05-18T17:06:46.044Z,21.70
2019-05-18T17:12:09.688Z,21.70
2019-05-18T17:17:35.322Z,21.60
2019-05-18T17:22:57.716Z,21.50
2019-05-18T17:28:21.378Z,21.20
2019-05-18T17:33:45.704Z,21.20
2019-05-18T17:39:09.107Z,21.10
2019-05-18T17:44:32.235Z,20.70
2019-05-18T17:49:58.252Z,20.90
2019-05-18T17:55:22.359Z,20.80
2019-05-18T18:00:45.868Z,20.90
2019-05-18T18:16:55.180Z,20.80
2019-05-18T18:22:18.849Z,20.70
2019-05-18T18:27:42.909Z,20.60
2019-05-18T18:33:06.271Z,20.20
2019-05-18T18:38:30.423Z,20.20
2019-05-18T18:43:53.923Z,20.10
2019-05-18T18:49:17.713Z,20.00
2019-05-18T18:54:41.063Z,20.00
2019-05-18T19:00:04.690Z,19.90
2019-05-18T19:05:28.472Z,19.80
2019-05-18T19:10:52.690Z,19.70
2019-05-18T19:16:17.128Z,19.60
2019-05-18T19:21:41.446Z,19.50
2019-05-18T19:27:04.899Z,19.50
2019-05-18T19:32:28.368Z,19.00
2019-05-18T19:43:15.919Z,19.10
2019-05-18T19:48:40.038Z,19.10
2019-05-18T19:59:27.159Z,19.00
2019-05-18T20:05:06.449Z,19.00
2019-05-18T20:10:15.883Z,18.90
2019-05-18T20:15:39.530Z,18.90
2019-05-18T20:21:03.651Z,18.70
2019-05-18T20:26:27.199Z,18.70
2019-05-18T20:31:50.948Z,18.60
2019-05-18T20:37:14.963Z,18.50
2019-05-18T20:42:38.904Z,18.50
2019-05-18T20:48:02.891Z,18.40
2019-05-18T20:53:26.144Z,18.40
2019-05-18T20:58:50.122Z,18.40
2019-05-18T21:04:13.763Z,18.20
2019-05-18T21:09:38.116Z,18.10
2019-05-18T21:25:50.583Z,15.10
2019-05-18T21:31:17.458Z,14.80
2019-05-18T21:36:42.036Z,15.80
2019-05-18T21:42:05.681Z,18.10
2019-05-18T21:47:34.251Z,17.10
2019-05-18T21:52:58.276Z,17.40
2019-05-18T21:58:21.871Z,15.90
2019-05-18T22:03:48.138Z,15.40
2019-05-18T22:09:09.999Z,15.80
2019-05-18T22:14:33.289Z,15.50
2019-05-18T22:19:56.398Z,14.90
2019-05-18T22:25:20.471Z,15.10
2019-05-18T22:30:44.006Z,14.90
2019-05-18T22:36:07.422Z,15.10
2019-05-18T22:41:31.075Z,14.90
2019-05-18T22:46:57.140Z,14.60
2019-05-18T22:52:20.984Z,15.00
2019-05-18T22:57:43.996Z,15.10
2019-05-18T23:03:07.630Z,15.80
2019-05-18T23:08:31.165Z,15.80
2019-05-18T23:13:54.464Z,16.00
2019-05-18T23:19:17.583Z,16.60
2019-05-18T23:24:40.955Z,17.20
2019-05-18T23:30:04.283Z,17.00
2019-05-18T23:35:27.661Z,17.30
2019-05-18T23:40:51.567Z,17.20
2019-05-18T23:46:15.007Z,17.20
2019-05-18T23:51:38.690Z,17.40
2019-05-18T23:57:03.115Z,17.40
